createdAt,value
2022-11-08T00:00:00.820Z,100560.72
2022-11-08T00:02:28.920Z,100556.31
2022-11-08T00:04:57.020Z,100566.78
2022-11-08T00:07:42.385Z,100562.97
2022-11-08T00:10:29.121Z,100562.16
2022-11-08T00:13:14.410Z,100563.84
2022-11-08T00:15:42.335Z,100561.34
2022-11-08T00:18:10.069Z,100558.00
2022-11-08T00:20:37.738Z,100563.44
2022-11-08T00:23:05.492Z,100563.66
2022-11-08T00:25:34.495Z,100561.75
2022-11-08T00:28:02.149Z,100563.44
2022-11-08T00:30:29.812Z,100573.72
2022-11-08T00:32:57.477Z,100568.47
2022-11-08T00:35:25.144Z,100571.19
2022-11-08T00:37:52.836Z,100565.97
2022-11-08T00:40:20.495Z,100565.97
2022-11-08T00:42:49.468Z,100563.25
2022-11-08T00:45:17.232Z,100574.34
2022-11-08T00:47:44.965Z,100566.19
2022-11-08T00:50:12.609Z,100568.09
2022-11-08T00:52:40.276Z,100574.56
2022-11-08T00:55:08.763Z,100573.53
2022-11-08T00:57:58.024Z,100568.09
2022-11-08T01:00:25.964Z,100574.34
2022-11-08T01:03:14.133Z,100569.13
2022-11-08T01:05:42.593Z,100570.19
2022-11-08T01:08:10.369Z,100568.09
2022-11-08T01:10:38.564Z,100567.88
2022-11-08T01:13:06.309Z,100568.69
2022-11-08T01:15:37.461Z,100568.09
2022-11-08T01:18:05.925Z,100567.03
2022-11-08T01:20:34.102Z,100565.38
2022-11-08T01:23:01.843Z,100564.75
2022-11-08T01:25:29.592Z,100570.63
2022-11-08T01:27:57.318Z,100566.88
2022-11-08T01:30:25.017Z,100563.75
2022-11-08T01:32:54.077Z,100565.44
2022-11-08T01:35:24.091Z,100561.88
2022-11-08T01:37:52.241Z,100551.84
2022-11-08T01:40:20.086Z,100552.66
2022-11-08T01:42:47.728Z,100548.28
2022-11-08T01:45:37.357Z,100547.28
2022-11-08T01:48:06.393Z,100553.53
2022-11-08T01:50:34.179Z,100548.59
2022-11-08T01:53:01.953Z,100546.91
2022-11-08T01:55:34.671Z,100544.88
2022-11-08T01:58:05.421Z,100541.50
2022-11-08T02:00:33.276Z,100544.91
2022-11-08T02:03:02.584Z,100542.19
2022-11-08T02:05:32.741Z,100532.34
2022-11-08T02:08:03.149Z,100535.13
2022-11-08T02:10:35.788Z,100531.53
2022-11-08T02:13:05.508Z,100528.22
2022-11-08T02:15:35.271Z,100528.44
2022-11-08T02:18:03.717Z,100529.91
2022-11-08T02:20:34.004Z,100528.50
2022-11-08T02:23:09.946Z,100521.84
2022-11-08T02:25:39.093Z,100526.19
2022-11-08T02:28:06.799Z,100522.88
2022-11-08T02:30:35.017Z,100529.59
2022-11-08T02:33:15.201Z,100526.22
2022-11-08T02:35:43.581Z,100519.97
2022-11-08T02:38:11.269Z,100520.19
2022-11-08T02:40:52.145Z,100518.28
2022-11-08T02:43:20.329Z,100515.97
2022-11-08T02:45:48.605Z,100513.69
2022-11-08T02:48:17.429Z,100514.94
2022-11-08T02:50:45.463Z,100515.56
2022-11-08T02:53:13.652Z,100510.16
2022-11-08T02:55:41.429Z,100507.44
2022-11-08T02:58:10.818Z,100513.31
2022-11-08T03:00:38.670Z,100518.72
2022-11-08T03:03:06.599Z,100527.09
2022-11-08T03:05:34.851Z,100525.47
2022-11-08T03:08:02.868Z,100522.13
2022-11-08T03:10:31.129Z,100526.13
2022-11-08T03:12:59.740Z,100521.72
2022-11-08T03:15:29.737Z,100519.88
2022-11-08T03:17:58.010Z,100517.38
2022-11-08T03:20:31.134Z,100518.47
2022-11-08T03:23:02.301Z,100516.16
2022-11-08T03:25:30.832Z,100510.91
2022-11-08T03:28:03.734Z,100511.56
2022-11-08T03:30:33.093Z,100500.28
2022-11-08T03:33:00.965Z,100509.03
2022-11-08T03:35:28.896Z,100509.47
2022-11-08T03:37:58.037Z,100504.06
2022-11-08T03:40:26.431Z,100499.44
2022-11-08T03:42:54.195Z,100513.03
2022-11-08T03:45:21.839Z,100499.66
2022-11-08T03:47:50.887Z,100508.22
2022-11-08T03:50:18.943Z,100513.25
2022-11-08T03:52:49.002Z,100513.69
2022-11-08T03:55:18.326Z,100510.97
2022-11-08T03:57:46.933Z,100506.78
2022-11-08T04:00:17.533Z,100508.66
2022-11-08T04:02:45.893Z,100517.41
2022-11-08T04:05:15.697Z,100509.69
2022-11-08T04:07:43.433Z,100505.97
2022-11-08T04:10:12.434Z,100498.03
2022-11-08T04:13:13.299Z,100496.53
2022-11-08T04:15:41.215Z,100498.63
2022-11-08T04:18:26.259Z,100488.81
2022-11-08T04:21:13.020Z,100488.41
2022-11-08T04:23:40.673Z,100493.84
2022-11-08T04:26:11.549Z,100486.72
2022-11-08T04:28:40.571Z,100490.06
2022-11-08T04:31:10.776Z,100487.56
2022-11-08T04:33:38.455Z,100480.66
2022-11-08T04:36:10.580Z,100494.47
2022-11-08T04:38:38.540Z,100483.38
2022-11-08T04:41:08.529Z,100486.72
2022-11-08T04:43:36.683Z,100482.56
2022-11-08T04:46:06.604Z,100481.53
2022-11-08T04:48:34.479Z,100475.25
2022-11-08T04:51:03.289Z,100476.50
2022-11-08T04:53:34.242Z,100482.97
2022-11-08T04:56:03.871Z,100474.84
2022-11-08T04:58:35.200Z,100474.19
2022-11-08T05:01:03.953Z,100469.00
2022-11-08T05:03:32.500Z,100466.72
2022-11-08T05:06:02.364Z,100481.09
2022-11-08T05:08:30.121Z,100483.00
2022-11-08T05:11:03.034Z,100467.13
2022-11-08T05:13:31.260Z,100467.97
2022-11-08T05:16:01.150Z,100470.06
2022-11-08T05:18:28.994Z,100473.81
2022-11-08T05:21:14.847Z,100474.22
2022-11-08T05:23:46.053Z,100469.84
2022-11-08T05:26:15.886Z,100462.75
2022-11-08T05:28:43.658Z,100457.16
2022-11-08T05:31:11.973Z,100456.06
2022-11-08T05:33:39.762Z,100461.50
2022-11-08T05:36:10.722Z,100455.03
2022-11-08T05:38:39.082Z,100458.38
2022-11-08T05:41:08.784Z,100450.88
2022-11-08T05:43:38.518Z,100451.69
2022-11-08T05:46:06.667Z,100455.00
2022-11-08T05:48:34.439Z,100441.03
2022-11-08T05:51:02.501Z,100453.75
2022-11-08T05:53:30.625Z,100440.41
2022-11-08T05:56:10.580Z,100450.22
2022-11-08T05:58:39.542Z,100439.78
2022-11-08T06:01:09.475Z,100439.78
2022-11-08T06:03:38.202Z,100444.63
2022-11-08T06:06:08.191Z,100449.63
2022-11-08T06:08:36.514Z,100444.44
2022-11-08T06:11:05.074Z,100442.31
2022-11-08T06:13:36.007Z,100446.28
2022-11-08T06:16:07.346Z,100440.50
2022-11-08T06:18:36.267Z,100439.84
2022-11-08T06:21:05.935Z,100443.22
2022-11-08T06:23:35.697Z,100445.47
2022-11-08T06:26:04.637Z,100443.59
2022-11-08T06:28:32.404Z,100443.81
2022-11-08T06:31:00.680Z,100441.94
2022-11-08T06:33:30.883Z,100445.94
2022-11-08T06:35:58.687Z,100448.44
2022-11-08T06:38:26.501Z,100448.00
2022-11-08T06:40:55.188Z,100451.56
2022-11-08T06:43:24.241Z,100449.06
2022-11-08T06:45:52.497Z,100453.88
2022-11-08T06:48:20.462Z,100453.44
2022-11-08T06:50:49.568Z,100449.06
2022-11-08T06:53:17.631Z,100447.19
2022-11-08T06:55:45.535Z,100456.38
2022-11-08T06:58:13.391Z,100454.72
2022-11-08T07:00:41.096Z,100449.72
2022-11-08T07:03:08.987Z,100450.31
2022-11-08T07:05:37.147Z,100455.13
2022-11-08T07:08:06.558Z,100459.31
2022-11-08T07:10:34.911Z,100452.41
2022-11-08T07:13:04.636Z,100445.53
2022-11-08T07:15:34.106Z,100457.00
2022-11-08T07:18:02.761Z,100448.03
2022-11-08T07:20:31.386Z,100453.88
2022-11-08T07:22:59.579Z,100448.22
2022-11-08T07:25:30.581Z,100453.88
2022-11-08T07:27:59.584Z,100454.25
2022-11-08T07:30:27.987Z,100450.09
2022-11-08T07:32:56.308Z,100451.75
2022-11-08T07:35:24.614Z,100445.28
2022-11-08T07:37:52.657Z,100442.38
2022-11-08T07:40:20.858Z,100438.63
2022-11-08T07:43:10.540Z,100435.47
2022-11-08T07:45:38.089Z,100433.41
2022-11-08T07:48:12.025Z,100436.13
2022-11-08T07:50:41.379Z,100431.50
2022-11-08T07:53:09.956Z,100431.28
2022-11-08T07:55:38.320Z,100427.09
2022-11-08T07:58:08.009Z,100420.88
2022-11-08T08:00:37.721Z,100419.16
2022-11-08T08:03:07.471Z,100414.19
2022-11-08T08:05:36.835Z,100414.81
2022-11-08T08:08:05.593Z,100401.44
2022-11-08T08:10:33.940Z,100403.13
2022-11-08T08:13:01.778Z,100409.56
2022-11-08T08:15:30.876Z,100401.78
2022-11-08T08:18:01.582Z,100390.25
2022-11-08T08:20:29.956Z,100400.25
2022-11-08T08:22:57.987Z,100387.09
2022-11-08T08:25:26.139Z,100391.72
2022-11-08T08:27:55.453Z,100375.38
2022-11-08T08:30:24.132Z,100378.88
2022-11-08T08:33:14.751Z,100371.19
2022-11-08T08:35:43.730Z,100376.16
2022-11-08T08:38:12.824Z,100372.59
2022-11-08T08:40:41.039Z,100356.50
2022-11-08T08:43:08.988Z,100360.84
2022-11-08T08:45:37.124Z,100348.72
2022-11-08T08:48:06.890Z,100343.66
2022-11-08T08:50:34.733Z,100348.44
2022-11-08T08:53:05.382Z,100325.44
2022-11-08T08:55:35.098Z,100328.56
2022-11-08T08:58:03.501Z,100328.81
2022-11-08T09:03:20.558Z,100341.28
2022-11-08T09:05:48.858Z,100330.00
2022-11-08T09:08:16.600Z,100331.06
2022-11-08T09:10:44.351Z,100331.69
2022-11-08T09:13:12.137Z,100337.25
2022-11-08T09:15:40.166Z,100336.22
2022-11-08T09:18:09.453Z,100331.59
2022-11-08T09:20:39.431Z,100333.66
2022-11-08T09:23:07.300Z,100328.84
2022-11-08T09:25:34.971Z,100326.13
2022-11-08T09:28:02.783Z,100328.41
2022-11-08T09:30:30.556Z,100329.38
2022-11-08T09:33:01.195Z,100322.84
2022-11-08T09:35:31.137Z,100323.22
2022-11-08T09:38:00.693Z,100322.47
2022-11-08T09:40:32.441Z,100322.88
2022-11-08T09:43:14.037Z,100322.22
2022-11-08T09:45:46.377Z,100315.09
2022-11-08T09:48:22.875Z,100319.25
2022-11-08T09:50:54.531Z,100309.38
2022-11-08T09:53:35.140Z,100311.28
2022-11-08T09:56:11.102Z,100307.66
2022-11-08T09:58:44.069Z,100309.56
2022-11-08T10:01:14.454Z,100300.09
2022-11-08T10:03:49.063Z,100306.06
2022-11-08T10:06:41.532Z,100301.00
2022-11-08T10:09:25.845Z,100297.97
2022-11-08T10:12:10.159Z,100295.88
2022-11-08T10:14:53.362Z,100285.72
2022-11-08T10:17:41.896Z,100281.03
2022-11-08T10:20:21.373Z,100282.22
2022-11-08T10:22:56.924Z,100275.28
2022-11-08T10:25:32.756Z,100279.66
2022-11-08T10:28:03.100Z,100287.22
2022-11-08T10:30:36.395Z,100277.06
2022-11-08T10:33:17.411Z,100259.81
2022-11-08T10:35:49.243Z,100254.97
2022-11-08T10:38:20.768Z,100258.88
2022-11-08T10:40:57.229Z,100259.25
2022-11-08T10:43:32.559Z,100255.25
2022-11-08T10:46:00.369Z,100252.91
2022-11-08T10:48:28.613Z,100249.47
2022-11-08T10:50:56.687Z,100253.63
2022-11-08T10:53:27.773Z,100237.16
2022-11-08T10:56:02.637Z,100229.94
2022-11-08T10:58:39.549Z,100225.34
2022-11-08T11:01:16.054Z,100225.13
2022-11-08T11:03:44.268Z,100222.16
2022-11-08T11:06:24.025Z,100213.03
2022-11-08T11:08:56.205Z,100213.03
2022-11-08T11:11:29.355Z,100204.41
2022-11-08T11:14:10.004Z,100205.44
2022-11-08T11:16:49.667Z,100201.66
2022-11-08T11:19:17.367Z,100200.13
2022-11-08T11:21:45.585Z,100206.75
2022-11-08T11:24:19.458Z,100194.84
2022-11-08T11:27:02.036Z,100199.34
2022-11-08T11:29:31.310Z,100204.78
2022-11-08T11:32:21.916Z,100200.53
2022-11-08T11:34:54.572Z,100197.31
2022-11-08T11:37:30.459Z,100194.13
2022-11-08T11:40:04.301Z,100192.22
2022-11-08T11:42:45.661Z,100179.22
2022-11-08T11:45:19.611Z,100173.03
2022-11-08T11:47:53.969Z,100160.81
2022-11-08T11:50:45.423Z,100168.25
2022-11-08T11:53:17.941Z,100161.50
2022-11-08T11:55:56.638Z,100166.50
2022-11-08T11:58:47.008Z,100160.19
2022-11-08T12:01:21.821Z,100155.09
2022-11-08T12:04:06.335Z,100157.13
2022-11-08T12:06:44.333Z,100151.78
2022-11-08T12:09:29.028Z,100151.28
2022-11-08T12:12:11.354Z,100147.50
2022-11-08T12:14:49.433Z,100138.81
2022-11-08T12:17:39.087Z,100141.06
2022-11-08T12:20:26.849Z,100135.72
2022-11-08T12:23:08.217Z,100132.84
2022-11-08T12:25:44.221Z,100127.72
2022-11-08T12:28:32.564Z,100128.09
2022-11-08T12:31:10.192Z,100133.84
2022-11-08T12:33:56.816Z,100128.19
2022-11-08T12:36:33.645Z,100125.19
2022-11-08T12:39:10.626Z,100117.22
2022-11-08T12:41:49.243Z,100120.59
2022-11-08T12:44:41.041Z,100109.78
2022-11-08T12:47:24.423Z,100102.16
2022-11-08T12:50:00.265Z,100115.00
2022-11-08T12:52:43.620Z,100108.22
2022-11-08T12:55:22.882Z,100110.34
2022-11-08T12:57:55.507Z,100112.84
2022-11-08T13:00:23.527Z,100108.72
2022-11-08T13:03:01.729Z,100108.13
2022-11-08T13:05:36.977Z,100103.25
2022-11-08T13:08:12.796Z,100099.44
2022-11-08T13:10:47.579Z,100107.63
2022-11-08T13:13:31.022Z,100099.44
2022-11-08T13:16:14.420Z,100098.38
2022-11-08T13:18:48.924Z,100101.09
2022-11-08T13:21:39.787Z,100106.06
2022-11-08T13:24:44.683Z,100114.84
2022-11-08T13:27:40.133Z,100100.63
2022-11-08T13:30:32.702Z,100096.22
2022-11-08T13:33:09.823Z,100101.44
2022-11-08T13:35:48.068Z,100095.97
2022-11-08T13:38:28.378Z,100094.56
2022-11-08T13:41:16.875Z,100097.81
2022-11-08T13:43:45.263Z,100104.88
2022-11-08T13:46:49.980Z,100110.34
2022-11-08T13:49:24.140Z,100108.13
2022-11-08T13:52:32.012Z,100107.56
2022-11-08T13:54:59.715Z,100100.44
2022-11-08T13:57:56.265Z,100095.44
2022-11-08T14:00:42.421Z,100097.97
2022-11-08T14:03:43.388Z,100103.97
2022-11-08T14:06:18.731Z,100093.06
2022-11-08T14:08:57.077Z,100103.41
2022-11-08T14:11:37.059Z,100101.16
2022-11-08T14:14:24.652Z,100098.34
2022-11-08T14:17:11.847Z,100097.53
2022-11-08T14:19:41.736Z,100105.97
2022-11-08T14:22:17.984Z,100098.03
2022-11-08T14:24:47.377Z,100101.22
2022-11-08T14:27:32.252Z,100100.31
2022-11-08T14:30:01.141Z,100092.63
2022-11-08T14:32:29.090Z,100098.91
2022-11-08T14:35:12.744Z,100090.16
2022-11-08T14:37:43.246Z,100090.88
2022-11-08T14:40:20.610Z,100090.88
2022-11-08T14:42:49.290Z,100090.50
2022-11-08T14:45:23.154Z,100089.44
2022-11-08T14:47:54.908Z,100093.25
2022-11-08T14:50:24.903Z,100099.19
2022-11-08T14:52:52.770Z,100106.78
2022-11-08T14:55:25.457Z,100103.22
2022-11-08T14:57:53.292Z,100093.75
2022-11-08T15:00:24.255Z,100108.19
2022-11-08T15:02:54.253Z,100103.84
2022-11-08T15:05:30.386Z,100105.16
2022-11-08T15:07:59.324Z,100097.19
2022-11-08T15:10:29.182Z,100098.03
2022-11-08T15:13:00.077Z,100098.03
2022-11-08T15:15:30.611Z,100097.44
2022-11-08T15:18:26.547Z,100086.78
2022-11-08T15:20:56.082Z,100081.81
2022-11-08T15:23:25.786Z,100080.97
2022-11-08T15:26:00.243Z,100094.03
2022-11-08T15:28:34.015Z,100100.31
2022-11-08T15:31:04.048Z,100104.09
2022-11-08T15:33:36.613Z,100096.16
2022-11-08T15:36:13.038Z,100104.59
2022-11-08T15:38:41.705Z,100102.09
2022-11-08T15:41:29.667Z,100105.44
2022-11-08T15:44:13.744Z,100090.13
2022-11-08T15:46:41.778Z,100086.09
2022-11-08T15:49:20.955Z,100084.94
2022-11-08T15:51:49.979Z,100087.41
2022-11-08T15:54:18.439Z,100083.84
2022-11-08T15:56:48.799Z,100085.50
2022-11-08T15:59:21.229Z,100084.69
2022-11-08T16:01:54.164Z,100074.59
2022-11-08T16:04:22.204Z,100085.50
2022-11-08T16:06:50.091Z,100079.00
2022-11-08T16:09:18.008Z,100074.34
2022-11-08T16:11:47.718Z,100061.81
2022-11-08T16:14:19.304Z,100074.34
2022-11-08T16:16:47.220Z,100065.91
2022-11-08T16:19:20.339Z,100070.31
2022-11-08T16:21:48.350Z,100062.38
2022-11-08T16:24:17.111Z,100050.41
2022-11-08T16:26:47.688Z,100045.22
2022-11-08T16:29:21.342Z,100048.75
2022-11-08T16:31:49.557Z,100042.47
2022-11-08T16:34:17.491Z,100036.69
2022-11-08T16:36:46.115Z,100037.50
2022-11-08T16:39:16.450Z,100032.28
2022-11-08T16:41:44.202Z,100036.69
2022-11-08T16:44:14.519Z,100032.28
2022-11-08T16:46:42.775Z,100029.81
2022-11-08T16:49:20.450Z,100027.91
2022-11-08T16:51:48.629Z,100028.16
2022-11-08T16:54:19.562Z,100035.28
2022-11-08T16:56:47.353Z,100033.03
2022-11-08T16:59:16.473Z,100038.72
2022-11-08T17:01:45.058Z,100038.97
2022-11-08T17:04:13.146Z,100044.91
2022-11-08T17:06:41.109Z,100056.63
2022-11-08T17:09:08.917Z,100055.22
2022-11-08T17:11:38.049Z,100057.38
2022-11-08T17:14:06.485Z,100058.69
2022-11-08T17:16:35.758Z,100057.63
2022-11-08T17:19:06.495Z,100053.72
2022-11-08T17:21:49.603Z,100075.03
2022-11-08T17:24:21.784Z,100069.22
2022-11-08T17:26:50.980Z,100071.59
2022-11-08T17:29:18.667Z,100067.50
2022-11-08T17:31:48.312Z,100072.09
2022-11-08T17:34:16.179Z,100079.09
2022-11-08T17:36:43.845Z,100075.06
2022-11-08T17:39:13.960Z,100077.78
2022-11-08T17:41:41.701Z,100079.19
2022-11-08T17:44:09.492Z,100082.63
2022-11-08T17:46:37.193Z,100079.91
2022-11-08T17:49:06.213Z,100063.81
2022-11-08T17:51:33.884Z,100067.94
2022-11-08T17:54:01.745Z,100074.94
2022-11-08T17:56:29.605Z,100072.97
2022-11-08T17:58:57.878Z,100078.41
2022-11-08T18:01:29.272Z,100070.81
2022-11-08T18:03:58.726Z,100071.06
2022-11-08T18:06:27.885Z,100074.59
2022-11-08T18:08:56.581Z,100082.78
2022-11-08T18:11:24.636Z,100087.41
2022-11-08T18:13:52.387Z,100083.25
2022-11-08T18:16:22.678Z,100089.53
2022-11-08T18:18:51.325Z,100078.88
2022-11-08T18:21:20.670Z,100086.69
2022-11-08T18:23:50.628Z,100089.06
2022-11-08T18:26:18.594Z,100085.28
2022-11-08T18:28:46.571Z,100089.41
2022-11-08T18:31:16.021Z,100095.72
2022-11-08T18:33:44.406Z,100095.81
2022-11-08T18:36:15.133Z,100099.22
2022-11-08T18:38:44.692Z,100090.47
2022-11-08T18:41:15.591Z,100097.94
2022-11-08T18:43:43.484Z,100091.19
2022-11-08T18:46:14.002Z,100084.94
2022-11-08T18:48:41.985Z,100093.34
2022-11-08T18:51:11.608Z,100100.09
2022-11-08T18:53:40.405Z,100103.88
2022-11-08T18:56:09.762Z,100110.84
2022-11-08T18:58:39.155Z,100086.91
2022-11-08T19:01:08.092Z,100089.19
2022-11-08T19:03:36.164Z,100082.44
2022-11-08T19:06:04.391Z,100088.72
2022-11-08T19:08:32.716Z,100084.94
2022-11-08T19:11:03.869Z,100081.13
2022-11-08T19:13:33.459Z,100086.09
2022-11-08T19:16:04.161Z,100088.72
2022-11-08T19:18:34.900Z,100090.38
2022-11-08T19:21:05.235Z,100087.66
2022-11-08T19:23:33.708Z,100088.47
2022-11-08T19:26:03.853Z,100094.75
2022-11-08T19:28:34.742Z,100086.09
2022-11-08T19:31:04.466Z,100090.47
2022-11-08T19:33:33.631Z,100090.47
2022-11-08T19:36:03.104Z,100091.31
2022-11-08T19:38:32.455Z,100080.16
2022-11-08T19:41:02.267Z,100083.94
2022-11-08T19:43:30.992Z,100072.34
2022-11-08T19:46:03.320Z,100077.53
2022-11-08T19:48:35.264Z,100081.19
2022-11-08T19:51:04.101Z,100076.09
2022-11-08T19:53:32.882Z,100071.13
2022-11-08T19:56:01.701Z,100080.13
2022-11-08T19:58:29.597Z,100070.53
2022-11-08T20:00:57.389Z,100076.59
2022-11-08T20:03:25.351Z,100068.41
2022-11-08T20:05:55.203Z,100076.09
2022-11-08T20:08:23.278Z,100076.94
2022-11-08T20:10:51.590Z,100078.25
2022-11-08T20:13:19.586Z,100076.59
2022-11-08T20:15:47.839Z,100074.44
2022-11-08T20:18:16.381Z,100080.97
2022-11-08T20:20:44.863Z,100087.00
2022-11-08T20:23:16.516Z,100093.28
2022-11-08T20:25:44.575Z,100093.28
2022-11-08T20:28:12.368Z,100084.88
2022-11-08T20:30:41.419Z,100096.84
2022-11-08T20:33:09.300Z,100089.22
2022-11-08T20:35:38.574Z,100089.81
2022-11-08T20:38:06.369Z,100094.22
2022-11-08T20:40:35.518Z,100083.88
2022-11-08T20:43:03.446Z,100087.22
2022-11-08T20:45:31.266Z,100077.13
2022-11-08T20:48:02.751Z,100080.69
2022-11-08T20:50:30.928Z,100067.88
2022-11-08T20:52:58.810Z,100072.63
2022-11-08T20:55:27.769Z,100071.06
2022-11-08T20:57:57.598Z,100066.28
2022-11-08T21:00:51.935Z,100058.44
2022-11-08T21:03:17.868Z,100069.09
2022-11-08T21:05:51.815Z,100060.66
2022-11-08T21:11:09.915Z,100065.88
2022-11-08T21:13:41.392Z,100070.75
2022-11-08T21:16:28.796Z,100067.94
2022-11-08T21:19:01.398Z,100085.97
2022-11-08T21:21:29.764Z,100091.06
2022-11-08T21:23:57.904Z,100095.69
2022-11-08T21:26:25.989Z,100096.50
2022-11-08T21:28:55.292Z,100094.84
2022-11-08T21:31:23.876Z,100090.81
2022-11-08T21:33:51.912Z,100091.88
2022-11-08T21:36:20.556Z,100091.06
2022-11-08T21:38:49.683Z,100087.28
2022-11-08T21:41:17.756Z,100096.50
2022-11-08T21:43:46.098Z,100096.50
2022-11-08T21:46:18.502Z,100100.06
2022-11-08T21:48:46.734Z,100090.25
2022-11-08T21:51:16.108Z,100100.66
2022-11-08T21:53:53.653Z,100091.06
2022-11-08T21:56:22.593Z,100094.84
2022-11-08T21:58:50.701Z,100090.25
2022-11-08T22:01:23.049Z,100097.81
2022-11-08T22:03:53.270Z,100100.56
2022-11-08T22:06:21.516Z,100096.16
2022-11-08T22:08:49.632Z,100100.56
2022-11-08T22:11:17.468Z,100098.88
2022-11-08T22:13:45.393Z,100103.28
2022-11-08T22:16:13.233Z,100113.13
2022-11-08T22:19:03.567Z,100115.25
2022-11-08T22:21:39.324Z,100121.78
2022-11-08T22:24:08.594Z,100115.50
2022-11-08T22:26:36.526Z,100120.13
2022-11-08T22:29:04.661Z,100115.50
2022-11-08T22:31:32.429Z,100114.69
2022-11-08T22:34:01.828Z,100120.13
2022-11-08T22:36:29.587Z,100122.25
2022-11-08T22:38:57.360Z,100123.56
2022-11-08T22:41:25.291Z,100119.53
2022-11-08T22:43:53.310Z,100122.16
2022-11-08T22:46:21.045Z,100114.81
2022-11-08T22:48:48.951Z,100122.75
2022-11-08T22:51:18.379Z,100126.53
2022-11-08T22:53:46.082Z,100126.53
2022-11-08T22:56:13.780Z,100128.66
2022-11-08T22:58:41.453Z,100132.47
2022-11-08T23:01:11.786Z,100133.91
2022-11-08T23:03:39.803Z,100127.84
2022-11-08T23:06:07.719Z,100128.66
2022-11-08T23:08:36.821Z,100133.06
2022-11-08T23:11:22.252Z,100134.13
2022-11-08T23:14:07.427Z,100121.56
2022-11-08T23:16:37.490Z,100138.75
2022-11-08T23:19:27.252Z,100125.94
2022-11-08T23:22:13.835Z,100119.41
2022-11-08T23:24:43.565Z,100118.34
2022-11-08T23:27:30.343Z,100120.28
2022-11-08T23:30:16.131Z,100111.00
2022-11-08T23:32:45.102Z,100118.97
2022-11-08T23:35:13.276Z,100106.97
2022-11-08T23:37:41.078Z,100102.59
2022-11-08T23:40:30.260Z,100108.06
2022-11-08T23:43:23.644Z,100108.53
2022-11-08T23:45:51.695Z,100113.97
2022-11-08T23:48:19.464Z,100128.66
2022-11-08T23:50:49.052Z,100129.50
2022-11-08T23:53:17.174Z,100130.31
2022-11-08T23:55:46.471Z,100123.00
2022-11-08T23:58:15.098Z,100116.69
